sensor_id;sensor_type;location;lat;lon;timestamp;P1;durP1;ratioP1;P2;durP2;ratioP2
23682;SDS011;24897;53.514;10.482;2023-04-25T00:01:09;85.37;;;78.17;;
23682;SDS011;24897;53.514;10.482;2023-04-25T00:03:56;82.53;;;75.43;;
23682;SDS011;24897;53.514;10.482;2023-04-25T00:06:40;91.73;;;84.00;;
23682;SDS011;24897;53.514;10.482;2023-04-25T00:09:25;88.00;;;80.47;;
23682;SDS011;24897;53.514;10.482;2023-04-25T00:12:11;94.23;;;85.93;;
23682;SDS011;24897;53.514;10.482;2023-04-25T00:14:55;95.03;;;86.97;;
23682;SDS011;24897;53.514;10.482;2023-04-25T00:17:40;88.60;;;81.33;;
23682;SDS011;24897;53.514;10.482;2023-04-25T00:20:24;95.73;;;87.70;;
23682;SDS011;24897;53.514;10.482;2023-04-25T00:23:08;96.80;;;88.60;;
23682;SDS011;24897;53.514;10.482;2023-04-25T00:25:53;95.17;;;87.23;;
23682;SDS011;24897;53.514;10.482;2023-04-25T00:28:38;97.03;;;88.90;;
23682;SDS011;24897;53.514;10.482;2023-04-25T00:31:23;99.13;;;90.70;;
23682;SDS011;24897;53.514;10.482;2023-04-25T00:34:08;103.33;;;94.70;;
23682;SDS011;24897;53.514;10.482;2023-04-25T00:36:52;98.70;;;90.17;;
23682;SDS011;24897;53.514;10.482;2023-04-25T00:39:36;99.57;;;91.47;;
23682;SDS011;24897;53.514;10.482;2023-04-25T00:42:24;109.53;;;100.67;;
23682;SDS011;24897;53.514;10.482;2023-04-25T00:45:09;106.40;;;97.27;;
23682;SDS011;24897;53.514;10.482;2023-04-25T00:47:58;112.37;;;102.97;;
23682;SDS011;24897;53.514;10.482;2023-04-25T00:50:43;115.03;;;105.53;;
23682;SDS011;24897;53.514;10.482;2023-04-25T00:53:38;111.33;;;101.93;;
23682;SDS011;24897;53.514;10.482;2023-04-25T00:56:23;116.73;;;106.93;;
23682;SDS011;24897;53.514;10.482;2023-04-25T00:59:09;113.10;;;103.43;;
23682;SDS011;24897;53.514;10.482;2023-04-25T01:01:53;116.43;;;105.93;;
23682;SDS011;24897;53.514;10.482;2023-04-25T01:04:38;117.93;;;107.80;;
23682;SDS011;24897;53.514;10.482;2023-04-25T01:07:22;112.70;;;102.67;;
23682;SDS011;24897;53.514;10.482;2023-04-25T01:10:07;117.87;;;107.23;;
23682;SDS011;24897;53.514;10.482;2023-04-25T01:12:51;109.53;;;99.53;;
23682;SDS011;24897;53.514;10.482;2023-04-25T01:15:35;104.33;;;94.80;;
23682;SDS011;24897;53.514;10.482;2023-04-25T01:18:20;107.27;;;97.33;;
23682;SDS011;24897;53.514;10.482;2023-04-25T01:21:09;98.67;;;89.90;;
23682;SDS011;24897;53.514;10.482;2023-04-25T01:23:54;104.53;;;94.13;;
23682;SDS011;24897;53.514;10.482;2023-04-25T01:26:38;99.97;;;90.70;;
23682;SDS011;24897;53.514;10.482;2023-04-25T01:33:09;88.27;;;79.47;;
23682;SDS011;24897;53.514;10.482;2023-04-25T01:35:53;79.37;;;71.27;;
23682;SDS011;24897;53.514;10.482;2023-04-25T01:38:38;74.23;;;66.90;;
23682;SDS011;24897;53.514;10.482;2023-04-25T01:41:24;88.87;;;80.23;;
23682;SDS011;24897;53.514;10.482;2023-04-25T01:44:08;82.17;;;74.00;;
23682;SDS011;24897;53.514;10.482;2023-04-25T01:46:53;79.43;;;71.17;;
23682;SDS011;24897;53.514;10.482;2023-04-25T01:49:38;54.87;;;33.97;;
23682;SDS011;24897;53.514;10.482;2023-04-25T01:52:22;52.33;;;33.60;;
23682;SDS011;24897;53.514;10.482;2023-04-25T01:55:06;53.47;;;34.67;;
23682;SDS011;24897;53.514;10.482;2023-04-25T01:57:51;49.87;;;32.87;;
23682;SDS011;24897;53.514;10.482;2023-04-25T02:00:35;58.80;;;33.07;;
23682;SDS011;24897;53.514;10.482;2023-04-25T02:03:22;60.13;;;33.13;;
23682;SDS011;24897;53.514;10.482;2023-04-25T02:06:06;56.50;;;33.50;;
23682;SDS011;24897;53.514;10.482;2023-04-25T02:08:50;61.87;;;32.80;;
23682;SDS011;24897;53.514;10.482;2023-04-25T02:14:56;54.67;;;33.80;;
23682;SDS011;24897;53.514;10.482;2023-04-25T02:17:41;50.87;;;33.17;;
23682;SDS011;24897;53.514;10.482;2023-04-25T02:20:25;62.37;;;35.10;;
23682;SDS011;24897;53.514;10.482;2023-04-25T02:23:10;53.93;;;32.93;;
23682;SDS011;24897;53.514;10.482;2023-04-25T02:25:56;59.50;;;34.80;;
23682;SDS011;24897;53.514;10.482;2023-04-25T02:28:40;58.63;;;34.90;;
23682;SDS011;24897;53.514;10.482;2023-04-25T02:31:24;53.13;;;33.73;;
23682;SDS011;24897;53.514;10.482;2023-04-25T02:34:09;53.07;;;33.80;;
23682;SDS011;24897;53.514;10.482;2023-04-25T02:36:54;57.47;;;33.93;;
23682;SDS011;24897;53.514;10.482;2023-04-25T02:39:38;52.90;;;33.73;;
23682;SDS011;24897;53.514;10.482;2023-04-25T02:42:22;53.97;;;32.43;;
23682;SDS011;24897;53.514;10.482;2023-04-25T02:45:06;50.27;;;31.70;;
23682;SDS011;24897;53.514;10.482;2023-04-25T02:47:51;51.23;;;31.07;;
23682;SDS011;24897;53.514;10.482;2023-04-25T02:50:36;52.20;;;31.57;;
23682;SDS011;24897;53.514;10.482;2023-04-25T02:53:20;51.63;;;31.83;;
23682;SDS011;24897;53.514;10.482;2023-04-25T02:56:04;45.83;;;30.63;;
23682;SDS011;24897;53.514;10.482;2023-04-25T02:58:48;49.13;;;31.07;;
23682;SDS011;24897;53.514;10.482;2023-04-25T03:01:32;49.60;;;32.13;;
23682;SDS011;24897;53.514;10.482;2023-04-25T03:04:17;47.30;;;32.73;;
23682;SDS011;24897;53.514;10.482;2023-04-25T03:07:03;49.87;;;32.90;;
23682;SDS011;24897;53.514;10.482;2023-04-25T03:09:50;48.73;;;32.40;;
23682;SDS011;24897;53.514;10.482;2023-04-25T03:12:54;50.83;;;32.60;;
23682;SDS011;24897;53.514;10.482;2023-04-25T03:20:21;52.07;;;32.83;;
23682;SDS011;24897;53.514;10.482;2023-04-25T03:31:33;47.67;;;31.30;;
23682;SDS011;24897;53.514;10.482;2023-04-25T03:42:32;49.63;;;33.90;;
23682;SDS011;24897;53.514;10.482;2023-04-25T03:46:17;47.80;;;29.60;;
23682;SDS011;24897;53.514;10.482;2023-04-25T03:49:24;39.27;;;29.70;;
23682;SDS011;24897;53.514;10.482;2023-04-25T03:52:09;39.40;;;29.70;;
23682;SDS011;24897;53.514;10.482;2023-04-25T03:54:53;40.87;;;29.17;;
23682;SDS011;24897;53.514;10.482;2023-04-25T03:57:37;45.53;;;29.10;;
23682;SDS011;24897;53.514;10.482;2023-04-25T04:00:21;43.93;;;29.17;;
23682;SDS011;24897;53.514;10.482;2023-04-25T04:03:06;43.43;;;28.57;;
23682;SDS011;24897;53.514;10.482;2023-04-25T04:05:50;41.83;;;30.07;;
23682;SDS011;24897;53.514;10.482;2023-04-25T04:08:34;41.00;;;29.10;;
23682;SDS011;24897;53.514;10.482;2023-04-25T04:11:19;39.13;;;28.80;;
23682;SDS011;24897;53.514;10.482;2023-04-25T04:14:07;40.83;;;28.10;;
23682;SDS011;24897;53.514;10.482;2023-04-25T04:16:51;37.17;;;28.40;;
23682;SDS011;24897;53.514;10.482;2023-04-25T04:19:36;36.87;;;26.90;;
23682;SDS011;24897;53.514;10.482;2023-04-25T04:22:20;40.07;;;27.97;;
23682;SDS011;24897;53.514;10.482;2023-04-25T04:25:04;44.00;;;27.00;;
23682;SDS011;24897;53.514;10.482;2023-04-25T04:27:49;41.03;;;28.10;;
23682;SDS011;24897;53.514;10.482;2023-04-25T04:30:38;40.23;;;28.97;;
23682;SDS011;24897;53.514;10.482;2023-04-25T04:33:24;38.07;;;24.93;;
23682;SDS011;24897;53.514;10.482;2023-04-25T04:36:08;35.93;;;24.37;;
23682;SDS011;24897;53.514;10.482;2023-04-25T04:38:53;36.13;;;25.00;;
23682;SDS011;24897;53.514;10.482;2023-04-25T04:41:37;34.13;;;23.73;;
23682;SDS011;24897;53.514;10.482;2023-04-25T04:44:21;36.00;;;24.27;;
23682;SDS011;24897;53.514;10.482;2023-04-25T04:47:06;39.33;;;24.17;;
23682;SDS011;24897;53.514;10.482;2023-04-25T04:49:50;35.53;;;22.17;;
23682;SDS011;24897;53.514;10.482;2023-04-25T04:52:37;32.33;;;21.90;;
23682;SDS011;24897;53.514;10.482;2023-04-25T04:55:22;34.07;;;19.73;;
23682;SDS011;24897;53.514;10.482;2023-04-25T04:58:06;30.13;;;18.30;;
23682;SDS011;24897;53.514;10.482;2023-04-25T05:00:51;28.20;;;17.93;;
23682;SDS011;24897;53.514;10.482;2023-04-25T05:03:35;26.60;;;17.20;;
23682;SDS011;24897;53.514;10.482;2023-04-25T05:06:19;21.63;;;16.10;;
23682;SDS011;24897;53.514;10.482;2023-04-25T05:09:03;24.93;;;17.00;;
23682;SDS011;24897;53.514;10.482;2023-04-25T05:11:48;25.50;;;16.70;;
23682;SDS011;24897;53.514;10.482;2023-04-25T05:14:32;29.97;;;17.30;;
23682;SDS011;24897;53.514;10.482;2023-04-25T05:17:17;26.53;;;17.40;;
23682;SDS011;24897;53.514;10.482;2023-04-25T05:20:01;29.07;;;18.57;;
23682;SDS011;24897;53.514;10.482;2023-04-25T05:22:46;31.63;;;20.47;;
23682;SDS011;24897;53.514;10.482;2023-04-25T05:25:30;30.37;;;20.73;;
23682;SDS011;24897;53.514;10.482;2023-04-25T05:28:14;31.83;;;21.07;;
23682;SDS011;24897;53.514;10.482;2023-04-25T05:30:58;29.47;;;20.93;;
23682;SDS011;24897;53.514;10.482;2023-04-25T05:33:43;27.93;;;18.30;;
23682;SDS011;24897;53.514;10.482;2023-04-25T05:36:27;29.03;;;18.90;;
23682;SDS011;24897;53.514;10.482;2023-04-25T05:39:12;25.60;;;17.97;;
23682;SDS011;24897;53.514;10.482;2023-04-25T05:41:56;29.37;;;18.73;;
23682;SDS011;24897;53.514;10.482;2023-04-25T05:44:41;29.47;;;19.40;;
23682;SDS011;24897;53.514;10.482;2023-04-25T05:47:25;27.67;;;19.00;;
23682;SDS011;24897;53.514;10.482;2023-04-25T05:50:10;29.80;;;19.03;;
23682;SDS011;24897;53.514;10.482;2023-04-25T05:52:54;28.93;;;19.80;;
23682;SDS011;24897;53.514;10.482;2023-04-25T05:55:38;27.23;;;19.20;;
23682;SDS011;24897;53.514;10.482;2023-04-25T05:58:22;24.87;;;19.17;;
23682;SDS011;24897;53.514;10.482;2023-04-25T06:01:07;31.87;;;21.50;;
23682;SDS011;24897;53.514;10.482;2023-04-25T06:03:52;28.13;;;20.80;;
23682;SDS011;24897;53.514;10.482;2023-04-25T06:06:36;30.03;;;21.90;;
23682;SDS011;24897;53.514;10.482;2023-04-25T06:09:20;28.67;;;21.40;;
23682;SDS011;24897;53.514;10.482;2023-04-25T06:12:05;28.57;;;20.80;;
23682;SDS011;24897;53.514;10.482;2023-04-25T06:14:50;34.77;;;22.07;;
23682;SDS011;24897;53.514;10.482;2023-04-25T06:17:34;35.20;;;21.40;;
23682;SDS011;24897;53.514;10.482;2023-04-25T06:20:18;29.77;;;21.17;;
23682;SDS011;24897;53.514;10.482;2023-04-25T06:23:06;36.30;;;25.80;;
23682;SDS011;24897;53.514;10.482;2023-04-25T06:25:50;75.17;;;44.10;;
23682;SDS011;24897;53.514;10.482;2023-04-25T06:28:34;31.67;;;21.67;;
23682;SDS011;24897;53.514;10.482;2023-04-25T06:31:18;28.53;;;21.37;;
23682;SDS011;24897;53.514;10.482;2023-04-25T06:34:02;35.40;;;23.60;;
23682;SDS011;24897;53.514;10.482;2023-04-25T06:36:47;26.50;;;22.00;;
23682;SDS011;24897;53.514;10.482;2023-04-25T06:39:31;33.93;;;24.57;;
23682;SDS011;24897;53.514;10.482;2023-04-25T06:42:14;33.53;;;25.83;;
23682;SDS011;24897;53.514;10.482;2023-04-25T06:44:59;35.53;;;26.47;;
23682;SDS011;24897;53.514;10.482;2023-04-25T06:47:43;31.33;;;24.77;;
23682;SDS011;24897;53.514;10.482;2023-04-25T06:50:27;27.63;;;22.53;;
23682;SDS011;24897;53.514;10.482;2023-04-25T06:53:11;39.13;;;23.50;;
23682;SDS011;24897;53.514;10.482;2023-04-25T06:55:56;29.97;;;21.53;;
23682;SDS011;24897;53.514;10.482;2023-04-25T06:58:40;30.43;;;21.40;;
23682;SDS011;24897;53.514;10.482;2023-04-25T07:01:24;28.77;;;22.53;;
23682;SDS011;24897;53.514;10.482;2023-04-25T07:04:08;28.13;;;21.23;;
23682;SDS011;24897;53.514;10.482;2023-04-25T07:06:52;27.00;;;21.03;;
23682;SDS011;24897;53.514;10.482;2023-04-25T07:09:37;32.30;;;21.20;;
23682;SDS011;24897;53.514;10.482;2023-04-25T07:12:21;29.53;;;19.97;;
23682;SDS011;24897;53.514;10.482;2023-04-25T07:15:05;27.13;;;20.70;;
23682;SDS011;24897;53.514;10.482;2023-04-25T07:17:51;23.47;;;20.97;;
23682;SDS011;24897;53.514;10.482;2023-04-25T07:20:35;30.00;;;21.83;;
23682;SDS011;24897;53.514;10.482;2023-04-25T07:23:20;31.03;;;20.97;;
23682;SDS011;24897;53.514;10.482;2023-04-25T07:26:04;31.13;;;22.73;;
23682;SDS011;24897;53.514;10.482;2023-04-25T07:28:49;25.80;;;20.87;;
23682;SDS011;24897;53.514;10.482;2023-04-25T07:31:34;30.97;;;20.70;;
23682;SDS011;24897;53.514;10.482;2023-04-25T07:34:19;27.30;;;19.93;;
23682;SDS011;24897;53.514;10.482;2023-04-25T07:37:03;30.30;;;19.53;;
23682;SDS011;24897;53.514;10.482;2023-04-25T07:39:49;27.53;;;19.90;;
23682;SDS011;24897;53.514;10.482;2023-04-25T07:42:33;26.23;;;20.33;;
23682;SDS011;24897;53.514;10.482;2023-04-25T07:45:17;30.00;;;18.47;;
23682;SDS011;24897;53.514;10.482;2023-04-25T07:48:01;30.07;;;21.47;;
23682;SDS011;24897;53.514;10.482;2023-04-25T07:50:46;26.23;;;21.43;;
23682;SDS011;24897;53.514;10.482;2023-04-25T07:53:30;27.80;;;20.73;;
23682;SDS011;24897;53.514;10.482;2023-04-25T07:56:16;27.98;;;21.83;;
23682;SDS011;24897;53.514;10.482;2023-04-25T07:59:00;27.67;;;22.83;;
23682;SDS011;24897;53.514;10.482;2023-04-25T08:01:44;30.57;;;23.77;;
23682;SDS011;24897;53.514;10.482;2023-04-25T08:04:28;35.53;;;31.83;;
23682;SDS011;24897;53.514;10.482;2023-04-25T08:07:12;34.97;;;28.17;;
23682;SDS011;24897;53.514;10.482;2023-04-25T08:09:56;31.73;;;27.30;;
23682;SDS011;24897;53.514;10.482;2023-04-25T08:12:41;34.90;;;27.60;;
23682;SDS011;24897;53.514;10.482;2023-04-25T08:15:25;29.97;;;24.93;;
23682;SDS011;24897;53.514;10.482;2023-04-25T08:18:09;30.73;;;26.90;;
23682;SDS011;24897;53.514;10.482;2023-04-25T08:20:54;35.53;;;26.37;;
23682;SDS011;24897;53.514;10.482;2023-04-25T08:23:38;30.60;;;25.10;;
23682;SDS011;24897;53.514;10.482;2023-04-25T08:26:23;27.43;;;24.47;;
23682;SDS011;24897;53.514;10.482;2023-04-25T08:29:08;26.57;;;23.70;;
23682;SDS011;24897;53.514;10.482;2023-04-25T08:31:52;26.90;;;20.83;;
23682;SDS011;24897;53.514;10.482;2023-04-25T08:34:36;21.87;;;18.30;;
23682;SDS011;24897;53.514;10.482;2023-04-25T08:37:22;22.40;;;18.53;;
23682;SDS011;24897;53.514;10.482;2023-04-25T08:40:07;22.57;;;19.80;;
23682;SDS011;24897;53.514;10.482;2023-04-25T08:42:58;21.73;;;17.87;;
23682;SDS011;24897;53.514;10.482;2023-04-25T08:45:44;24.10;;;18.53;;
23682;SDS011;24897;53.514;10.482;2023-04-25T08:48:43;23.93;;;18.73;;
23682;SDS011;24897;53.514;10.482;2023-04-25T08:51:32;24.20;;;20.13;;
23682;SDS011;24897;53.514;10.482;2023-04-25T08:54:16;24.73;;;19.97;;
23682;SDS011;24897;53.514;10.482;2023-04-25T08:57:04;26.90;;;24.07;;
23682;SDS011;24897;53.514;10.482;2023-04-25T08:59:50;28.20;;;25.60;;
23682;SDS011;24897;53.514;10.482;2023-04-25T09:02:36;32.93;;;29.60;;
23682;SDS011;24897;53.514;10.482;2023-04-25T09:05:21;37.27;;;33.47;;
23682;SDS011;24897;53.514;10.482;2023-04-25T09:08:06;32.90;;;29.60;;
23682;SDS011;24897;53.514;10.482;2023-04-25T09:10:50;30.93;;;28.13;;
23682;SDS011;24897;53.514;10.482;2023-04-25T09:13:34;39.47;;;27.60;;
23682;SDS011;24897;53.514;10.482;2023-04-25T09:16:18;29.47;;;23.23;;
23682;SDS011;24897;53.514;10.482;2023-04-25T09:19:05;42.70;;;25.67;;
23682;SDS011;24897;53.514;10.482;2023-04-25T09:21:49;35.83;;;23.57;;
23682;SDS011;24897;53.514;10.482;2023-04-25T09:24:39;30.93;;;23.80;;
23682;SDS011;24897;53.514;10.482;2023-04-25T09:27:25;27.47;;;24.70;;
23682;SDS011;24897;53.514;10.482;2023-04-25T09:30:10;29.97;;;26.83;;
23682;SDS011;24897;53.514;10.482;2023-04-25T09:33:13;34.17;;;30.57;;
23682;SDS011;24897;53.514;10.482;2023-04-25T09:36:08;33.07;;;29.47;;
23682;SDS011;24897;53.514;10.482;2023-04-25T09:38:54;37.03;;;32.47;;
23682;SDS011;24897;53.514;10.482;2023-04-25T09:41:42;28.07;;;24.97;;
23682;SDS011;24897;53.514;10.482;2023-04-25T09:44:26;25.70;;;21.20;;
23682;SDS011;24897;53.514;10.482;2023-04-25T09:47:14;28.97;;;23.90;;
23682;SDS011;24897;53.514;10.482;2023-04-25T09:50:01;27.43;;;24.07;;
23682;SDS011;24897;53.514;10.482;2023-04-25T09:52:46;29.20;;;26.00;;
23682;SDS011;24897;53.514;10.482;2023-04-25T09:55:47;28.87;;;25.17;;
23682;SDS011;24897;53.514;10.482;2023-04-25T09:58:32;27.73;;;24.83;;
23682;SDS011;24897;53.514;10.482;2023-04-25T10:01:17;22.97;;;20.57;;
23682;SDS011;24897;53.514;10.482;2023-04-25T10:04:02;20.17;;;16.63;;
23682;SDS011;24897;53.514;10.482;2023-04-25T10:06:54;18.87;;;15.63;;
23682;SDS011;24897;53.514;10.482;2023-04-25T10:09:40;17.23;;;15.37;;
23682;SDS011;24897;53.514;10.482;2023-04-25T10:12:25;16.10;;;14.50;;
23682;SDS011;24897;53.514;10.482;2023-04-25T10:15:10;17.67;;;15.13;;
23682;SDS011;24897;53.514;10.482;2023-04-25T10:17:56;22.00;;;15.07;;
23682;SDS011;24897;53.514;10.482;2023-04-25T10:20:40;16.73;;;15.00;;
23682;SDS011;24897;53.514;10.482;2023-04-25T10:23:25;19.37;;;17.47;;
23682;SDS011;24897;53.514;10.482;2023-04-25T10:26:10;25.37;;;22.87;;
23682;SDS011;24897;53.514;10.482;2023-04-25T10:29:02;22.67;;;20.53;;
23682;SDS011;24897;53.514;10.482;2023-04-25T10:31:48;19.80;;;17.80;;
23682;SDS011;24897;53.514;10.482;2023-04-25T10:34:41;18.20;;;16.30;;
23682;SDS011;24897;53.514;10.482;2023-04-25T10:37:29;17.77;;;16.00;;
23682;SDS011;24897;53.514;10.482;2023-04-25T10:40:14;16.90;;;14.90;;
23682;SDS011;24897;53.514;10.482;2023-04-25T10:49:07;37.10;;;24.90;;
23682;SDS011;24897;53.514;10.482;2023-04-25T10:51:58;20.40;;;15.60;;
23682;SDS011;24897;53.514;10.482;2023-04-25T10:55:02;16.83;;;13.97;;
23682;SDS011;24897;53.514;10.482;2023-04-25T10:57:47;15.87;;;13.80;;
23682;SDS011;24897;53.514;10.482;2023-04-25T11:00:33;15.03;;;13.60;;
23682;SDS011;24897;53.514;10.482;2023-04-25T11:03:23;17.70;;;14.07;;
23682;SDS011;24897;53.514;10.482;2023-04-25T11:06:11;17.00;;;15.20;;
23682;SDS011;24897;53.514;10.482;2023-04-25T11:08:59;16.77;;;15.00;;
23682;SDS011;24897;53.514;10.482;2023-04-25T11:11:52;16.33;;;14.77;;
23682;SDS011;24897;53.514;10.482;2023-04-25T11:14:41;15.80;;;14.50;;
23682;SDS011;24897;53.514;10.482;2023-04-25T11:17:25;17.73;;;14.73;;
23682;SDS011;24897;53.514;10.482;2023-04-25T11:20:09;21.03;;;15.60;;
23682;SDS011;24897;53.514;10.482;2023-04-25T11:22:57;18.50;;;15.37;;
23682;SDS011;24897;53.514;10.482;2023-04-25T11:25:43;17.70;;;15.77;;
23682;SDS011;24897;53.514;10.482;2023-04-25T11:28:28;16.10;;;14.60;;
23682;SDS011;24897;53.514;10.482;2023-04-25T11:31:12;17.23;;;15.47;;
23682;SDS011;24897;53.514;10.482;2023-04-25T11:33:56;17.23;;;15.43;;
23682;SDS011;24897;53.514;10.482;2023-04-25T11:36:41;17.10;;;15.23;;
23682;SDS011;24897;53.514;10.482;2023-04-25T11:39:25;22.03;;;15.80;;
23682;SDS011;24897;53.514;10.482;2023-04-25T11:42:10;17.77;;;15.87;;
23682;SDS011;24897;53.514;10.482;2023-04-25T11:44:54;17.60;;;15.87;;
23682;SDS011;24897;53.514;10.482;2023-04-25T11:47:38;16.87;;;15.23;;
23682;SDS011;24897;53.514;10.482;2023-04-25T11:50:22;18.40;;;16.03;;
23682;SDS011;24897;53.514;10.482;2023-04-25T11:53:06;19.53;;;17.27;;
23682;SDS011;24897;53.514;10.482;2023-04-25T11:55:52;20.10;;;17.70;;
23682;SDS011;24897;53.514;10.482;2023-04-25T11:58:53;20.77;;;17.60;;
23682;SDS011;24897;53.514;10.482;2023-04-25T12:01:40;18.70;;;16.10;;
23682;SDS011;24897;53.514;10.482;2023-04-25T12:04:25;19.00;;;17.00;;
23682;SDS011;24897;53.514;10.482;2023-04-25T12:07:09;16.87;;;15.37;;
23682;SDS011;24897;53.514;10.482;2023-04-25T12:09:53;16.87;;;15.20;;
23682;SDS011;24897;53.514;10.482;2023-04-25T12:12:38;17.10;;;15.43;;
23682;SDS011;24897;53.514;10.482;2023-04-25T12:15:25;18.53;;;15.37;;
23682;SDS011;24897;53.514;10.482;2023-04-25T12:18:09;20.73;;;15.90;;
23682;SDS011;24897;53.514;10.482;2023-04-25T12:20:54;17.77;;;15.00;;
23682;SDS011;24897;53.514;10.482;2023-04-25T12:23:38;17.00;;;15.33;;
23682;SDS011;24897;53.514;10.482;2023-04-25T12:26:23;16.60;;;14.90;;
23682;SDS011;24897;53.514;10.482;2023-04-25T12:32:19;16.37;;;14.67;;
23682;SDS011;24897;53.514;10.482;2023-04-25T12:35:05;16.83;;;15.17;;
23682;SDS011;24897;53.514;10.482;2023-04-25T12:37:50;16.90;;;15.10;;
23682;SDS011;24897;53.514;10.482;2023-04-25T12:40:34;17.40;;;15.10;;
23682;SDS011;24897;53.514;10.482;2023-04-25T12:43:18;18.43;;;14.37;;
23682;SDS011;24897;53.514;10.482;2023-04-25T12:46:03;16.43;;;14.63;;
23682;SDS011;24897;53.514;10.482;2023-04-25T12:48:47;17.33;;;15.50;;
23682;SDS011;24897;53.514;10.482;2023-04-25T12:51:31;16.13;;;14.47;;
23682;SDS011;24897;53.514;10.482;2023-04-25T12:54:16;16.17;;;14.60;;
23682;SDS011;24897;53.514;10.482;2023-04-25T12:57:01;16.87;;;15.17;;
23682;SDS011;24897;53.514;10.482;2023-04-25T12:59:46;15.73;;;14.23;;
23682;SDS011;24897;53.514;10.482;2023-04-25T13:02:30;16.70;;;14.30;;
23682;SDS011;24897;53.514;10.482;2023-04-25T13:05:14;15.43;;;14.00;;
23682;SDS011;24897;53.514;10.482;2023-04-25T13:07:59;14.93;;;13.53;;
23682;SDS011;24897;53.514;10.482;2023-04-25T13:10:43;15.07;;;13.77;;
23682;SDS011;24897;53.514;10.482;2023-04-25T13:13:27;15.77;;;14.47;;
23682;SDS011;24897;53.514;10.482;2023-04-25T13:16:11;15.70;;;14.20;;
23682;SDS011;24897;53.514;10.482;2023-04-25T13:18:59;16.17;;;14.67;;
23682;SDS011;24897;53.514;10.482;2023-04-25T13:21:43;17.17;;;14.87;;
23682;SDS011;24897;53.514;10.482;2023-04-25T13:24:27;16.23;;;14.80;;
23682;SDS011;24897;53.514;10.482;2023-04-25T13:27:12;15.87;;;14.27;;
23682;SDS011;24897;53.514;10.482;2023-04-25T13:29:57;16.20;;;14.70;;
23682;SDS011;24897;53.514;10.482;2023-04-25T13:32:41;19.20;;;15.60;;
23682;SDS011;24897;53.514;10.482;2023-04-25T13:35:26;16.50;;;14.80;;
23682;SDS011;24897;53.514;10.482;2023-04-25T13:38:10;18.50;;;15.57;;
23682;SDS011;24897;53.514;10.482;2023-04-25T13:40:55;18.93;;;15.07;;
23682;SDS011;24897;53.514;10.482;2023-04-25T13:43:39;16.27;;;14.73;;
23682;SDS011;24897;53.514;10.482;2023-04-25T13:46:23;17.83;;;14.63;;
23682;SDS011;24897;53.514;10.482;2023-04-25T13:49:07;17.53;;;15.20;;
23682;SDS011;24897;53.514;10.482;2023-04-25T13:51:51;16.50;;;15.00;;
23682;SDS011;24897;53.514;10.482;2023-04-25T13:54:36;63.10;;;40.07;;
23682;SDS011;24897;53.514;10.482;2023-04-25T13:57:20;17.07;;;15.07;;
23682;SDS011;24897;53.514;10.482;2023-04-25T14:00:04;16.80;;;15.03;;
23682;SDS011;24897;53.514;10.482;2023-04-25T14:02:52;16.20;;;14.60;;
23682;SDS011;24897;53.514;10.482;2023-04-25T14:05:37;17.77;;;15.97;;
23682;SDS011;24897;53.514;10.482;2023-04-25T14:08:21;16.20;;;14.60;;
23682;SDS011;24897;53.514;10.482;2023-04-25T14:11:05;16.47;;;14.77;;
23682;SDS011;24897;53.514;10.482;2023-04-25T14:13:49;16.80;;;15.00;;
23682;SDS011;24897;53.514;10.482;2023-04-25T14:16:34;16.03;;;14.40;;
23682;SDS011;24897;53.514;10.482;2023-04-25T14:19:18;16.87;;;15.00;;
23682;SDS011;24897;53.514;10.482;2023-04-25T14:22:03;19.30;;;17.30;;
23682;SDS011;24897;53.514;10.482;2023-04-25T14:24:47;23.40;;;21.00;;
23682;SDS011;24897;53.514;10.482;2023-04-25T14:27:31;22.27;;;19.93;;
23682;SDS011;24897;53.514;10.482;2023-04-25T14:30:17;20.80;;;17.93;;
23682;SDS011;24897;53.514;10.482;2023-04-25T14:33:02;19.73;;;17.83;;
23682;SDS011;24897;53.514;10.482;2023-04-25T14:35:46;20.27;;;16.80;;
23682;SDS011;24897;53.514;10.482;2023-04-25T14:38:30;18.20;;;16.40;;
23682;SDS011;24897;53.514;10.482;2023-04-25T14:41:15;19.13;;;16.17;;
23682;SDS011;24897;53.514;10.482;2023-04-25T14:43:58;18.47;;;16.10;;
23682;SDS011;24897;53.514;10.482;2023-04-25T14:46:43;20.27;;;15.70;;
23682;SDS011;24897;53.514;10.482;2023-04-25T14:49:28;17.47;;;15.57;;
23682;SDS011;24897;53.514;10.482;2023-04-25T14:52:12;22.57;;;18.67;;
23682;SDS011;24897;53.514;10.482;2023-04-25T14:54:56;18.43;;;15.30;;
23682;SDS011;24897;53.514;10.482;2023-04-25T14:57:40;17.57;;;15.50;;
23682;SDS011;24897;53.514;10.482;2023-04-25T15:00:24;16.77;;;15.10;;
23682;SDS011;24897;53.514;10.482;2023-04-25T15:03:10;17.57;;;15.50;;
23682;SDS011;24897;53.514;10.482;2023-04-25T15:05:56;17.93;;;15.20;;
23682;SDS011;24897;53.514;10.482;2023-04-25T15:08:40;19.90;;;15.60;;
23682;SDS011;24897;53.514;10.482;2023-04-25T15:11:24;17.43;;;15.63;;
23682;SDS011;24897;53.514;10.482;2023-04-25T15:14:08;18.90;;;16.03;;
23682;SDS011;24897;53.514;10.482;2023-04-25T15:16:52;18.03;;;16.00;;
23682;SDS011;24897;53.514;10.482;2023-04-25T15:19:36;17.93;;;15.73;;
23682;SDS011;24897;53.514;10.482;2023-04-25T15:22:20;19.30;;;15.73;;
23682;SDS011;24897;53.514;10.482;2023-04-25T15:25:05;17.83;;;16.10;;
23682;SDS011;24897;53.514;10.482;2023-04-25T15:27:52;17.37;;;15.60;;
23682;SDS011;24897;53.514;10.482;2023-04-25T15:30:38;16.87;;;15.07;;
23682;SDS011;24897;53.514;10.482;2023-04-25T15:33:22;16.70;;;15.00;;
23682;SDS011;24897;53.514;10.482;2023-04-25T15:36:07;16.60;;;14.83;;
23682;SDS011;24897;53.514;10.482;2023-04-25T15:38:51;17.00;;;15.20;;
23682;SDS011;24897;53.514;10.482;2023-04-25T15:41:36;15.90;;;14.50;;
23682;SDS011;24897;53.514;10.482;2023-04-25T15:44:20;17.00;;;15.20;;
23682;SDS011;24897;53.514;10.482;2023-04-25T15:47:04;19.93;;;15.63;;
23682;SDS011;24897;53.514;10.482;2023-04-25T15:49:49;25.63;;;15.80;;
23682;SDS011;24897;53.514;10.482;2023-04-25T15:52:34;16.60;;;14.80;;
23682;SDS011;24897;53.514;10.482;2023-04-25T15:55:19;17.40;;;15.60;;
23682;SDS011;24897;53.514;10.482;2023-04-25T15:58:04;17.90;;;16.00;;
23682;SDS011;24897;53.514;10.482;2023-04-25T16:00:48;16.50;;;14.80;;
23682;SDS011;24897;53.514;10.482;2023-04-25T16:03:34;16.90;;;14.57;;
23682;SDS011;24897;53.514;10.482;2023-04-25T16:06:18;17.03;;;15.33;;
23682;SDS011;24897;53.514;10.482;2023-04-25T16:09:02;16.17;;;14.50;;
23682;SDS011;24897;53.514;10.482;2023-04-25T16:11:46;16.83;;;14.90;;
23682;SDS011;24897;53.514;10.482;2023-04-25T16:14:31;15.80;;;14.20;;
23682;SDS011;24897;53.514;10.482;2023-04-25T16:17:16;16.10;;;14.50;;
23682;SDS011;24897;53.514;10.482;2023-04-25T16:20:00;17.23;;;14.50;;
23682;SDS011;24897;53.514;10.482;2023-04-25T16:22:52;22.50;;;15.20;;
23682;SDS011;24897;53.514;10.482;2023-04-25T16:25:36;18.63;;;14.23;;
23682;SDS011;24897;53.514;10.482;2023-04-25T16:28:20;20.90;;;14.20;;
23682;SDS011;24897;53.514;10.482;2023-04-25T16:31:04;16.07;;;14.53;;